TimeEDT,TemperatureF,Dew PointF,Humidity,Sea Level PressureIn,VisibilityMPH,Wind Direction,Wind SpeedMPH,Gust SpeedMPH,PrecipitationIn,Events,Conditions,WindDirDegrees,DateUTC
12:53 AM,77.0,73.9,90,29.76,-9999.0,South,4.6,-,N/A,,Unknown,170,2012-10-02 04:53:00
1:53 AM,77.0,73.9,90,29.75,-9999.0,South,5.8,-,N/A,,Unknown,170,2012-10-02 05:53:00
2:53 AM,77.0,73.9,90,29.75,-9999.0,Variable,6.9,-,0.12,,Unknown,0,2012-10-02 06:53:00
3:53 AM,77.0,73.9,90,29.76,-9999.0,South,4.6,-,0.07,,Unknown,180,2012-10-02 07:53:00
4:53 AM,75.9,73.0,91,29.77,-9999.0,SSE,5.8,-,0.07,,Unknown,150,2012-10-02 08:53:00
5:53 AM,77.0,75.0,94,29.78,-9999.0,WSW,5.8,-,0.17,,Unknown,240,2012-10-02 09:53:00
6:53 AM,77.0,75.0,94,29.80,-9999.0,WSW,3.5,-,0.12,,Unknown,250,2012-10-02 10:53:00
7:53 AM,75.9,73.9,94,29.83,-9999.0,Calm,Calm,-,0.01,,Unknown,0,2012-10-02 11:53:00
8:53 AM,77.0,75.0,94,29.84,-9999.0,South,3.5,-,N/A,,Unknown,170,2012-10-02 12:53:00
9:53 AM,77.0,73.9,90,29.86,-9999.0,SSE,3.5,-,N/A,,Unknown,160,2012-10-02 13:53:00
10:53 AM,82.9,75.0,77,29.87,-9999.0,South,9.2,-,N/A,,Unknown,180,2012-10-02 14:53:00
11:53 AM,82.0,73.9,76,29.89,-9999.0,SW,9.2,-,0.02,,Unknown,230,2012-10-02 15:53:00
12:53 PM,84.9,73.0,67,29.89,-9999.0,SW,9.2,-,N/A,,Unknown,220,2012-10-02 16:53:00
1:53 PM,86.0,71.1,61,29.89,-9999.0,WSW,15.0,19.6,N/A,,Unknown,240,2012-10-02 17:53:00
2:53 PM,84.0,70.0,63,29.88,-9999.0,WSW,11.5,-,N/A,,Unknown,240,2012-10-02 18:53:00
3:53 PM,84.0,68.0,58,29.88,-9999.0,SW,10.4,-,N/A,,Unknown,230,2012-10-02 19:53:00
4:53 PM,82.9,66.9,58,29.89,-9999.0,SW,6.9,19.6,N/A,,Unknown,230,2012-10-02 20:53:00
5:53 PM,81.0,64.9,58,29.90,-9999.0,WSW,6.9,-,N/A,,Unknown,250,2012-10-02 21:53:00
6:53 PM,79.0,68.0,69,29.91,-9999.0,Calm,Calm,-,N/A,,Unknown,0,2012-10-02 22:53:00
7:53 PM,77.0,68.0,74,29.94,-9999.0,Calm,Calm,-,N/A,,Unknown,0,2012-10-02 23:53:00
8:53 PM,75.0,69.1,82,29.96,-9999.0,Calm,Calm,-,N/A,,Unknown,0,2012-10-03 00:53:00
9:53 PM,73.9,69.1,85,29.99,-9999.0,Calm,Calm,-,N/A,,Unknown,0,2012-10-03 01:53:00
10:53 PM,73.9,70.0,87,30.01,-9999.0,Calm,Calm,-,N/A,,Unknown,0,2012-10-03 02:53:00
11:53 PM,73.9,70.0,87,30.02,-9999.0,Calm,Calm,-,N/A,,Unknown,0,2012-10-03 03:53:00